Time;durP1;ratioP1;P1;durP2;ratioP2;P2;SDS_P1;SDS_P2;PMS_P1;PMS_P2;Temp;Humidity;BMP_temperature;BMP_pressure;BME280_temperature;BME280_humidity;BME280_pressure;Samples;Min_cycle;Max_cycle;Signal;HPM_P1;HPM_P2
2022/11/23 00:01:37;;;;;;;4.23;1.30;;;11.50;99.90;;;;;;5027248;28;20526;-87
2022/11/23 00:04:05;;;;;;;5.05;1.30;;;11.60;99.90;;;;;;5039077;28;20043;-86
2022/11/23 00:06:31;;;;;;;3.53;1.08;;;11.60;99.90;;;;;;5022547;28;20403;-85
2022/11/23 00:08:57;;;;;;;2.53;0.90;;;11.60;99.90;;;;;;5006001;28;20150;-87
2022/11/23 00:11:24;;;;;;;3.63;1.05;;;11.60;99.90;;;;;;5027542;28;20037;-87
2022/11/23 00:13:50;;;;;;;3.78;1.00;;;11.70;99.90;;;;;;5004942;28;20170;-86
2022/11/23 00:16:19;;;;;;;2.08;1.02;;;11.70;99.90;;;;;;5056006;28;20021;-87
2022/11/23 00:18:45;;;;;;;6.23;1.27;;;11.70;99.90;;;;;;5005145;28;20618;-87
2022/11/23 00:21:13;;;;;;;3.58;1.00;;;11.70;99.90;;;;;;5048999;28;20265;-87
2022/11/23 00:23:39;;;;;;;3.47;1.10;;;11.70;99.90;;;;;;5028994;28;20441;-86
2022/11/23 00:26:05;;;;;;;2.77;0.90;;;11.70;99.90;;;;;;5041852;28;20029;-86
2022/11/23 00:28:31;;;;;;;4.05;1.15;;;11.70;99.90;;;;;;5002265;28;20056;-86
2022/11/23 00:30:57;;;;;;;3.15;1.10;;;11.70;99.90;;;;;;5016316;28;20120;-87
2022/11/23 00:33:23;;;;;;;3.55;1.20;;;11.70;99.90;;;;;;5039643;28;20044;-86
2022/11/23 00:36:01;;;;;;;5.77;1.20;;;11.70;99.90;;;;;;5018337;28;20284;-87
2022/11/23 00:38:28;;;;;;;4.15;1.10;;;11.70;99.90;;;;;;5030377;28;20021;-86
2022/11/23 00:41:01;;;;;;;4.93;1.23;;;11.70;99.90;;;;;;5001172;28;20021;-86
2022/11/23 00:43:28;;;;;;;4.23;0.80;;;11.70;99.90;;;;;;5012154;28;20676;-84
2022/11/23 00:46:18;;;;;;;2.88;0.75;;;11.70;99.90;;;;;;5003474;28;20126;-86
2022/11/23 00:48:45;;;;;;;2.55;0.90;;;11.60;99.90;;;;;;5008210;28;20025;-86
2022/11/23 00:51:14;;;;;;;5.60;1.20;;;11.60;99.90;;;;;;5051253;28;20037;-87
2022/11/23 00:53:40;;;;;;;5.50;1.17;;;11.60;99.90;;;;;;5003992;28;20528;-85
2022/11/23 00:56:06;;;;;;;4.87;0.90;;;11.60;99.90;;;;;;5002584;28;20529;-87
2022/11/23 00:58:33;;;;;;;3.30;0.90;;;11.60;99.90;;;;;;5022675;28;20520;-85
2022/11/23 01:01:11;;;;;;;4.70;0.98;;;11.60;99.90;;;;;;4990376;28;20372;-86
2022/11/23 01:03:39;;;;;;;3.78;0.85;;;11.60;99.90;;;;;;5053020;28;20032;-86
2022/11/23 01:06:08;;;;;;;4.90;1.10;;;11.60;99.90;;;;;;5006454;28;20250;-86
2022/11/23 01:08:34;;;;;;;2.30;0.90;;;11.60;99.90;;;;;;5055917;28;20552;-87
2022/11/23 01:11:02;;;;;;;3.17;0.88;;;11.50;99.90;;;;;;5014285;28;20831;-87
2022/11/23 01:13:28;;;;;;;3.65;0.95;;;11.60;99.90;;;;;;5031901;28;20032;-87
2022/11/23 01:15:54;;;;;;;4.28;0.85;;;11.60;99.90;;;;;;5033662;28;20392;-87
2022/11/23 01:18:20;;;;;;;3.65;0.80;;;11.60;99.90;;;;;;5023836;28;20010;-86
2022/11/23 01:20:46;;;;;;;3.67;1.17;;;11.60;99.90;;;;;;5026301;28;20373;-85
2022/11/23 01:23:12;;;;;;;4.40;0.98;;;11.50;99.90;;;;;;5016171;28;20064;-86
2022/11/23 01:25:37;;;;;;;2.70;0.80;;;11.60;99.90;;;;;;5030637;28;20465;-85
2022/11/23 01:28:03;;;;;;;4.13;1.00;;;11.60;99.90;;;;;;5016685;28;20265;-86
2022/11/23 01:30:29;;;;;;;6.43;1.20;;;11.60;99.90;;;;;;5021386;28;20175;-88
2022/11/23 01:32:54;;;;;;;4.78;1.08;;;11.60;99.90;;;;;;4992182;28;20025;-87
2022/11/23 01:35:20;;;;;;;4.67;0.97;;;11.60;99.90;;;;;;5028332;28;20158;-87
2022/11/23 01:37:46;;;;;;;3.10;0.90;;;11.70;99.90;;;;;;5019412;28;20037;-87
2022/11/23 01:40:11;;;;;;;3.80;0.70;;;11.60;99.90;;;;;;5023722;28;20539;-86
2022/11/23 01:42:57;;;;;;;4.68;0.90;;;11.70;99.90;;;;;;5031652;28;20033;-88
2022/11/23 01:45:34;;;;;;;3.10;0.75;;;11.60;99.90;;;;;;5014197;28;20036;-86
2022/11/23 01:48:04;;;;;;;2.57;0.80;;;11.70;99.90;;;;;;5000494;28;20482;-87
2022/11/23 01:50:30;;;;;;;3.45;1.00;;;11.70;99.90;;;;;;5038357;28;20027;-86
2022/11/23 01:52:56;;;;;;;3.80;1.08;;;11.70;99.90;;;;;;5019728;28;20306;-88
2022/11/23 01:55:23;;;;;;;4.27;1.00;;;11.70;99.90;;;;;;5018921;28;20563;-88
2022/11/23 01:57:49;;;;;;;4.55;1.30;;;11.70;99.90;;;;;;5029603;28;20420;-87
2022/11/23 02:00:15;;;;;;;3.30;1.00;;;11.70;99.90;;;;;;4990542;28;20241;-87
2022/11/23 02:02:49;;;;;;;6.67;1.43;;;11.60;99.90;;;;;;5056134;28;20112;-88
2022/11/23 02:05:18;;;;;;;3.03;0.90;;;11.70;99.90;;;;;;5025943;28;20588;-86
2022/11/23 02:07:47;;;;;;;3.97;0.80;;;11.70;99.90;;;;;;5014728;28;20551;-87
2022/11/23 02:10:12;;;;;;;3.85;0.85;;;11.70;99.90;;;;;;5014843;28;20075;-87
2022/11/23 02:12:38;;;;;;;4.70;0.90;;;11.70;99.90;;;;;;5040413;28;20560;-87
2022/11/23 02:15:04;;;;;;;2.55;0.80;;;11.70;99.90;;;;;;5018150;28;20249;-86
2022/11/23 02:17:32;;;;;;;3.38;0.93;;;11.70;99.90;;;;;;5021862;28;20049;-87
2022/11/23 02:20:24;;;;;;;5.00;1.10;;;11.70;99.90;;;;;;5007967;28;20453;-87
2022/11/23 02:23:01;;;;;;;3.42;0.75;;;11.70;99.90;;;;;;5020356;28;20047;-86
2022/11/23 02:25:44;;;;;;;2.67;0.80;;;11.70;99.90;;;;;;5023552;28;20392;-85
2022/11/23 02:28:25;;;;;;;4.25;1.48;;;11.70;99.90;;;;;;5005413;28;20025;-87
2022/11/23 02:30:53;;;;;;;3.75;0.90;;;11.70;99.90;;;;;;4999294;28;20833;-86
2022/11/23 02:33:19;;;;;;;3.07;1.00;;;11.70;99.90;;;;;;5040711;28;20048;-87
2022/11/23 02:35:53;;;;;;;2.30;0.90;;;11.80;99.90;;;;;;4989177;28;20028;-87
2022/11/23 02:38:20;;;;;;;4.82;0.98;;;11.80;99.90;;;;;;5004047;28;20036;-86
2022/11/23 02:40:46;;;;;;;4.00;0.90;;;11.80;99.90;;;;;;5041982;28;20104;-87
2022/11/23 02:43:13;;;;;;;3.08;0.95;;;11.80;99.90;;;;;;5024190;28;20557;-85
2022/11/23 02:45:54;;;;;;;4.72;0.93;;;11.80;99.90;;;;;;5036152;28;20037;-86
2022/11/23 02:48:20;;;;;;;4.57;1.05;;;11.70;99.90;;;;;;5055488;28;20031;-87
2022/11/23 02:50:46;;;;;;;3.83;0.90;;;11.80;99.90;;;;;;4993537;28;20033;-86
2022/11/23 02:53:12;;;;;;;3.08;0.70;;;11.70;99.90;;;;;;5060879;28;20481;-86
2022/11/23 02:55:38;;;;;;;5.43;1.10;;;11.70;99.90;;;;;;5023238;28;20049;-85
2022/11/23 02:58:04;;;;;;;4.32;1.00;;;11.70;99.90;;;;;;5020512;28;20174;-86
2022/11/23 03:00:32;;;;;;;5.45;1.10;;;11.70;99.90;;;;;;5036794;28;20054;-86
2022/11/23 03:03:00;;;;;;;4.50;0.93;;;11.70;99.90;;;;;;5014096;28;20053;-86
2022/11/23 03:05:27;;;;;;;3.00;0.70;;;11.70;99.90;;;;;;5010068;28;20040;-86
2022/11/23 03:07:52;;;;;;;3.50;0.82;;;11.60;99.90;;;;;;5031186;28;20021;-87
2022/11/23 03:10:19;;;;;;;3.67;0.97;;;11.70;99.90;;;;;;5017105;28;20327;-87
2022/11/23 03:12:44;;;;;;;6.90;1.20;;;11.60;99.90;;;;;;5024666;28;20025;-86
2022/11/23 03:15:10;;;;;;;3.85;0.80;;;11.60;99.90;;;;;;5029851;28;20026;-87
2022/11/23 03:17:36;;;;;;;5.60;0.90;;;11.50;99.90;;;;;;5036806;28;20029;-87
2022/11/23 03:20:02;;;;;;;7.38;1.55;;;11.50;99.90;;;;;;5030614;28;20029;-87
2022/11/23 03:22:27;;;;;;;3.63;0.93;;;11.50;99.90;;;;;;5050313;28;20279;-87
2022/11/23 03:24:53;;;;;;;3.33;0.77;;;11.50;99.90;;;;;;5032289;28;20033;-88
2022/11/23 03:27:18;;;;;;;6.57;1.17;;;11.50;99.90;;;;;;5032607;28;20398;-86
2022/11/23 03:29:44;;;;;;;3.78;1.15;;;11.40;99.90;;;;;;5048143;28;20074;-87
2022/11/23 03:32:10;;;;;;;5.20;1.03;;;11.40;99.90;;;;;;5040981;28;20049;-87
2022/11/23 03:34:35;;;;;;;5.85;1.00;;;11.40;99.90;;;;;;5050362;28;20109;-86
2022/11/23 03:37:01;;;;;;;4.57;1.30;;;11.40;99.90;;;;;;5014941;28;20116;-87
2022/11/23 03:39:27;;;;;;;5.77;1.30;;;11.40;99.90;;;;;;5038827;28;20029;-87
2022/11/23 03:41:52;;;;;;;9.27;1.83;;;11.40;99.90;;;;;;5037743;28;20289;-87
2022/11/23 03:44:18;;;;;;;3.70;1.00;;;11.40;99.90;;;;;;5027109;28;20059;-86
2022/11/23 03:46:44;;;;;;;4.18;1.20;;;11.40;99.90;;;;;;5015549;28;20032;-87
2022/11/23 03:49:09;;;;;;;3.47;0.83;;;11.50;99.90;;;;;;5045323;28;20019;-87
2022/11/23 03:51:35;;;;;;;4.63;0.80;;;11.40;99.90;;;;;;5039529;28;20065;-87
2022/11/23 03:54:00;;;;;;;3.80;1.00;;;11.40;99.90;;;;;;5019847;28;20064;-87
2022/11/23 03:56:26;;;;;;;3.28;0.82;;;11.50;99.90;;;;;;5023881;28;20029;-86
2022/11/23 03:58:52;;;;;;;6.80;1.60;;;11.50;99.90;;;;;;4998331;28;20127;-86
2022/11/23 04:01:17;;;;;;;4.33;0.90;;;11.50;99.90;;;;;;5023564;28;20028;-87
2022/11/23 04:03:43;;;;;;;3.97;1.00;;;11.50;99.90;;;;;;5018661;28;20025;-86
2022/11/23 04:06:09;;;;;;;4.17;1.00;;;11.50;99.90;;;;;;5033879;28;20456;-85
2022/11/23 04:08:34;;;;;;;4.60;1.13;;;11.50;99.90;;;;;;5022810;28;20537;-86
2022/11/23 04:11:00;;;;;;;3.70;0.87;;;11.50;99.90;;;;;;5040689;28;20506;-88
2022/11/23 04:13:25;;;;;;;4.22;0.90;;;11.50;99.90;;;;;;5010374;28;20022;-85
2022/11/23 04:15:51;;;;;;;3.60;0.80;;;11.50;99.90;;;;;;5057714;28;20620;-86
2022/11/23 04:18:17;;;;;;;5.20;1.00;;;11.40;99.90;;;;;;5011161;28;20032;-86
2022/11/23 04:20:42;;;;;;;5.43;0.90;;;11.30;99.90;;;;;;5054979;28;20030;-85
2022/11/23 04:23:08;;;;;;;4.03;1.03;;;11.30;99.90;;;;;;5038976;28;20029;-87
2022/11/23 04:25:34;;;;;;;6.78;1.15;;;11.30;99.90;;;;;;5057857;28;20032;-86
2022/11/23 04:27:59;;;;;;;6.07;1.00;;;11.20;99.90;;;;;;5027749;28;20104;-87
2022/11/23 04:30:25;;;;;;;4.78;0.88;;;11.20;99.90;;;;;;5011527;28;20426;-87
2022/11/23 04:32:51;;;;;;;3.70;0.80;;;11.10;99.90;;;;;;5032751;28;20072;-88
2022/11/23 04:35:16;;;;;;;3.47;1.02;;;11.10;99.90;;;;;;5007742;28;20127;-87
2022/11/23 04:37:42;;;;;;;3.07;1.20;;;11.10;99.90;;;;;;5026261;28;20025;-87
2022/11/23 04:40:08;;;;;;;2.78;0.88;;;11.10;99.90;;;;;;5007598;28;20132;-87
2022/11/23 04:42:34;;;;;;;4.80;1.20;;;11.00;99.90;;;;;;5009300;28;20044;-86
2022/11/23 04:45:00;;;;;;;4.30;0.90;;;11.00;99.90;;;;;;5006028;28;20033;-85
2022/11/23 04:47:25;;;;;;;5.03;0.87;;;11.00;99.90;;;;;;5027607;28;20029;-87
2022/11/23 04:49:51;;;;;;;3.30;1.00;;;11.00;99.90;;;;;;5002961;28;20362;-86
2022/11/23 04:52:17;;;;;;;4.37;0.90;;;11.00;99.90;;;;;;5011283;28;20026;-86
2022/11/23 04:54:42;;;;;;;4.97;1.00;;;11.00;99.90;;;;;;4987274;28;20406;-86
2022/11/23 04:57:08;;;;;;;2.70;0.90;;;11.00;99.90;;;;;;5028539;28;21099;-86
2022/11/23 04:59:34;;;;;;;4.30;0.90;;;11.00;99.90;;;;;;5027938;28;20055;-86
2022/11/23 05:02:00;;;;;;;2.75;0.90;;;11.00;99.90;;;;;;5014748;28;20181;-87
2022/11/23 05:04:25;;;;;;;5.20;1.00;;;11.00;99.90;;;;;;5031387;28;20028;-86
2022/11/23 05:06:51;;;;;;;3.97;0.93;;;11.00;99.90;;;;;;5015686;28;20040;-86
2022/11/23 05:09:17;;;;;;;2.70;0.80;;;11.00;99.90;;;;;;5009644;28;20049;-86
2022/11/23 05:11:42;;;;;;;4.07;0.93;;;11.00;99.90;;;;;;5026686;28;20452;-86
2022/11/23 05:14:08;;;;;;;4.73;0.90;;;11.00;99.90;;;;;;5023655;28;20109;-86
2022/11/23 05:16:34;;;;;;;3.22;0.90;;;11.00;99.90;;;;;;5004750;28;20068;-86
2022/11/23 05:19:00;;;;;;;2.83;0.70;;;10.90;99.90;;;;;;5005185;28;20246;-85
2022/11/23 05:21:26;;;;;;;3.53;0.60;;;10.90;99.90;;;;;;5020768;28;20322;-86
2022/11/23 05:23:51;;;;;;;5.30;1.00;;;10.90;99.90;;;;;;5009937;28;20032;-85
2022/11/23 05:26:17;;;;;;;3.73;1.00;;;10.90;99.90;;;;;;5005238;28;20396;-85
2022/11/23 05:28:43;;;;;;;4.05;1.00;;;10.90;99.90;;;;;;5025039;28;20159;-86
2022/11/23 05:31:09;;;;;;;4.10;0.93;;;10.80;99.90;;;;;;5013622;28;20677;-86
2022/11/23 05:33:35;;;;;;;4.05;0.68;;;10.80;99.90;;;;;;5029987;28;20690;-86
2022/11/23 05:36:00;;;;;;;3.55;0.90;;;10.80;99.90;;;;;;5001433;28;20013;-87
2022/11/23 05:38:26;;;;;;;3.67;0.93;;;10.80;99.90;;;;;;5023975;28;20205;-86
2022/11/23 05:40:52;;;;;;;4.35;1.10;;;10.70;99.90;;;;;;5006459;28;20032;-86
2022/11/23 05:43:17;;;;;;;4.03;0.90;;;10.70;99.90;;;;;;5034198;28;20037;-86
2022/11/23 05:45:43;;;;;;;4.07;1.10;;;10.60;99.90;;;;;;5020514;28;20037;-86
2022/11/23 05:48:09;;;;;;;3.60;1.03;;;10.60;99.90;;;;;;5013576;28;20017;-87
2022/11/23 05:50:35;;;;;;;4.63;0.83;;;10.60;99.90;;;;;;5013834;28;20033;-87
2022/11/23 05:53:00;;;;;;;3.17;0.70;;;10.50;99.90;;;;;;5028408;28;20291;-86
2022/11/23 05:55:26;;;;;;;2.78;0.90;;;10.50;99.90;;;;;;5004854;28;20299;-87
2022/11/23 05:57:52;;;;;;;3.17;0.90;;;10.40;99.90;;;;;;5030514;28;20432;-86
2022/11/23 06:00:18;;;;;;;4.10;0.88;;;10.40;99.90;;;;;;5020820;28;21104;-86
2022/11/23 06:02:44;;;;;;;3.65;0.73;;;10.30;99.90;;;;;;4986054;28;20200;-86
2022/11/23 06:05:10;;;;;;;4.73;1.00;;;10.30;99.90;;;;;;5061809;28;20024;-86
2022/11/23 06:07:35;;;;;;;4.07;1.02;;;10.20;99.90;;;;;;4999804;28;20561;-86
2022/11/23 06:10:03;;;;;;;4.43;0.90;;;10.20;99.90;;;;;;5021895;28;20079;-86
2022/11/23 06:12:29;;;;;;;3.17;0.68;;;10.20;99.90;;;;;;5010529;28;20541;-84
2022/11/23 06:14:54;;;;;;;4.68;0.82;;;10.10;99.90;;;;;;5017270;28;20216;-86
2022/11/23 06:17:21;;;;;;;7.77;1.57;;;10.10;99.90;;;;;;5012985;28;20465;-86
2022/11/23 06:19:46;;;;;;;3.95;0.80;;;10.10;99.90;;;;;;5036735;28;20020;-85
2022/11/23 06:22:14;;;;;;;3.37;0.83;;;10.00;99.90;;;;;;5022833;28;20597;-87
2022/11/23 06:24:40;;;;;;;3.00;0.60;;;10.00;99.90;;;;;;5023182;28;20492;-86
2022/11/23 06:27:06;;;;;;;2.15;0.70;;;10.00;99.90;;;;;;5023733;28;20029;-86
2022/11/23 06:29:32;;;;;;;2.42;0.60;;;9.90;99.90;;;;;;5032716;28;20022;-86
2022/11/23 06:31:57;;;;;;;3.57;0.80;;;9.90;99.90;;;;;;5045050;28;20029;-86
2022/11/23 06:34:23;;;;;;;3.33;0.80;;;9.90;99.90;;;;;;5024259;28;20032;-86
2022/11/23 06:36:49;;;;;;;4.03;0.70;;;9.90;99.90;;;;;;5037876;28;20308;-86
2022/11/23 06:39:14;;;;;;;3.73;0.80;;;9.80;99.90;;;;;;5002426;28;20025;-86
2022/11/23 06:41:40;;;;;;;1.57;0.67;;;9.80;99.90;;;;;;5035748;28;20812;-86
2022/11/23 06:44:05;;;;;;;5.77;0.80;;;9.70;99.90;;;;;;5040888;28;20041;-85
2022/11/23 06:46:32;;;;;;;4.00;1.17;;;9.70;99.90;;;;;;5025107;28;20029;-86
2022/11/23 06:48:57;;;;;;;3.05;0.80;;;9.70;99.90;;;;;;5030024;28;20021;-85
2022/11/23 06:51:23;;;;;;;3.93;0.93;;;9.60;99.90;;;;;;5005603;28;20393;-85
2022/11/23 06:53:49;;;;;;;4.63;1.27;;;9.60;99.90;;;;;;5013262;28;20116;-86
2022/11/23 06:56:14;;;;;;;3.87;1.07;;;9.60;99.90;;;;;;5038901;28;20124;-86
2022/11/23 06:58:40;;;;;;;3.20;0.70;;;9.60;99.90;;;;;;4997785;28;20337;-86
2022/11/23 07:01:08;;;;;;;5.43;1.27;;;9.50;99.90;;;;;;5052335;28;20024;-85
2022/11/23 07:03:34;;;;;;;2.58;1.10;;;9.50;99.90;;;;;;5022222;28;20029;-86
2022/11/23 07:06:07;;;;;;;4.72;1.00;;;9.50;99.90;;;;;;5031252;28;20057;-86
2022/11/23 07:08:35;;;;;;;4.40;1.02;;;9.40;99.90;;;;;;5011424;28;20262;-86
2022/11/23 07:11:05;;;;;;;3.97;0.77;;;9.40;99.90;;;;;;5019399;28;20569;-86
2022/11/23 07:13:31;;;;;;;1.95;0.60;;;9.40;99.90;;;;;;4992898;28;20953;-85
2022/11/23 07:15:58;;;;;;;2.63;0.70;;;9.40;99.90;;;;;;5031749;28;20021;-86
2022/11/23 07:18:24;;;;;;;3.40;1.23;;;9.40;99.90;;;;;;5005063;28;20044;-86
2022/11/23 07:20:50;;;;;;;4.55;0.90;;;9.30;99.90;;;;;;5043480;28;20021;-85
2022/11/23 07:23:16;;;;;;;5.80;1.07;;;9.30;99.90;;;;;;4994496;28;20041;-86
2022/11/23 07:25:42;;;;;;;2.97;0.77;;;9.40;99.90;;;;;;5018448;28;20379;-86
2022/11/23 07:28:10;;;;;;;2.93;0.80;;;9.30;99.90;;;;;;5025912;28;20036;-86
2022/11/23 07:30:36;;;;;;;5.95;1.10;;;9.30;99.90;;;;;;5006387;28;20302;-87
2022/11/23 07:33:04;;;;;;;2.93;1.07;;;9.30;99.90;;;;;;5023201;28;20438;-86
2022/11/23 07:35:31;;;;;;;5.35;1.20;;;9.30;99.90;;;;;;5032443;28;20107;-86
2022/11/23 07:37:58;;;;;;;4.03;0.85;;;9.30;99.90;;;;;;5001874;28;20029;-86
2022/11/23 07:40:23;;;;;;;2.00;0.77;;;9.30;99.90;;;;;;4994308;28;20047;-85
2022/11/23 07:42:49;;;;;;;10.20;1.47;;;9.30;99.90;;;;;;5027138;28;20489;-85
2022/11/23 07:45:15;;;;;;;5.03;1.00;;;9.30;99.90;;;;;;5008384;28;20036;-86
2022/11/23 07:47:41;;;;;;;2.80;1.00;;;9.30;99.90;;;;;;5009776;28;20119;-86
2022/11/23 07:50:09;;;;;;;2.20;0.80;;;9.30;99.90;;;;;;5027399;28;20029;-85
2022/11/23 07:52:36;;;;;;;4.10;1.10;;;9.30;99.90;;;;;;5034977;28;20747;-86
2022/11/23 07:55:01;;;;;;;2.22;0.95;;;9.30;99.90;;;;;;5005938;28;20434;-87
2022/11/23 07:57:27;;;;;;;3.10;1.07;;;9.30;99.90;;;;;;5011389;28;20131;-86
2022/11/23 07:59:53;;;;;;;4.20;1.20;;;9.40;99.90;;;;;;5014993;28;20104;-86
2022/11/23 08:02:19;;;;;;;4.20;1.40;;;9.40;99.90;;;;;;4994654;28;20036;-87
2022/11/23 08:04:44;;;;;;;3.85;1.27;;;9.40;99.90;;;;;;5010398;28;20261;-85
2022/11/23 08:07:10;;;;;;;6.07;1.40;;;9.40;99.90;;;;;;5034814;28;20079;-86
2022/11/23 08:09:36;;;;;;;4.50;1.38;;;9.40;99.90;;;;;;5000209;28;20687;-86
2022/11/23 08:12:01;;;;;;;3.57;1.00;;;9.40;99.90;;;;;;5026101;28;20021;-86
2022/11/23 08:14:27;;;;;;;4.82;1.02;;;9.40;99.90;;;;;;5014021;28;20299;-86
2022/11/23 08:16:53;;;;;;;5.90;1.20;;;9.40;99.90;;;;;;5024421;28;20017;-86
2022/11/23 08:19:18;;;;;;;4.60;1.00;;;9.50;99.90;;;;;;5027389;28;20022;-86
2022/11/23 08:21:44;;;;;;;4.97;1.00;;;9.50;99.90;;;;;;5025152;28;20258;-86
2022/11/23 08:24:10;;;;;;;4.78;1.30;;;9.50;99.90;;;;;;5026856;28;20084;-86
2022/11/23 08:26:36;;;;;;;6.72;1.23;;;9.50;99.90;;;;;;5001480;28;20222;-85
2022/11/23 08:29:02;;;;;;;3.57;1.10;;;9.60;99.90;;;;;;5003526;28;20033;-86
2022/11/23 08:31:28;;;;;;;5.18;1.30;;;9.60;99.90;;;;;;5007179;28;20075;-83
2022/11/23 08:33:54;;;;;;;6.97;1.50;;;9.60;99.90;;;;;;5024407;28;20747;-85
2022/11/23 08:36:19;;;;;;;2.67;0.90;;;9.70;99.90;;;;;;5023299;28;20159;-84
2022/11/23 08:38:45;;;;;;;5.38;1.60;;;9.80;99.90;;;;;;5020424;28;20578;-84
2022/11/23 08:41:11;;;;;;;3.70;1.30;;;9.80;99.90;;;;;;5047302;28;20529;-85
2022/11/23 08:43:37;;;;;;;4.18;1.52;;;9.80;99.90;;;;;;4997271;28;20568;-86
2022/11/23 08:46:03;;;;;;;6.13;1.97;;;9.80;99.90;;;;;;5021590;28;20022;-85
2022/11/23 08:48:29;;;;;;;5.60;1.60;;;9.90;99.90;;;;;;4991539;28;20020;-88
2022/11/23 08:50:58;;;;;;;5.28;1.50;;;9.90;99.90;;;;;;5015263;28;20032;-86
2022/11/23 08:53:23;;;;;;;5.28;1.40;;;10.00;99.90;;;;;;5019725;28;20021;-85
2022/11/23 08:55:49;;;;;;;3.43;1.23;;;10.00;99.90;;;;;;5016761;28;20418;-86
2022/11/23 08:58:14;;;;;;;4.23;1.90;;;10.00;99.90;;;;;;5049944;28;20028;-86
2022/11/23 09:00:40;;;;;;;6.60;1.95;;;10.10;99.90;;;;;;5013618;28;20225;-85
2022/11/23 09:03:06;;;;;;;6.27;1.50;;;10.20;99.90;;;;;;5031778;28;20035;-85
2022/11/23 09:05:31;;;;;;;4.95;1.10;;;10.30;99.90;;;;;;5013306;28;20517;-84
2022/11/23 09:08:00;;;;;;;3.37;1.10;;;10.30;99.90;;;;;;5030987;28;20489;-86
2022/11/23 09:10:26;;;;;;;3.78;1.20;;;10.50;99.90;;;;;;5021888;28;20029;-85
2022/11/23 09:12:52;;;;;;;4.07;1.23;;;10.50;99.90;;;;;;5049793;28;20043;-86
2022/11/23 09:15:20;;;;;;;3.90;1.13;;;10.60;99.90;;;;;;4998153;28;20076;-84
2022/11/23 09:17:46;;;;;;;2.97;1.30;;;10.80;99.90;;;;;;5058884;28;20619;-85
2022/11/23 09:20:12;;;;;;;5.20;1.33;;;10.90;99.90;;;;;;5022505;28;20368;-86
2022/11/23 09:22:38;;;;;;;4.27;1.20;;;11.00;99.90;;;;;;5044173;28;20581;-86
2022/11/23 09:25:05;;;;;;;4.43;1.27;;;11.10;99.90;;;;;;5024887;28;20432;-86
2022/11/23 09:27:31;;;;;;;5.63;1.50;;;11.20;99.90;;;;;;5037453;28;20211;-85
2022/11/23 09:29:57;;;;;;;5.15;1.70;;;11.30;99.90;;;;;;5014961;28;20030;-86
2022/11/23 09:32:22;;;;;;;5.03;1.80;;;11.30;99.90;;;;;;5009537;28;20025;-86
2022/11/23 09:34:48;;;;;;;4.55;1.60;;;11.40;99.90;;;;;;5027292;28;20302;-85
2022/11/23 09:37:14;;;;;;;6.43;1.70;;;11.40;99.90;;;;;;5016637;28;20517;-85
2022/11/23 09:39:40;;;;;;;5.35;1.50;;;11.40;99.90;;;;;;5031739;28;20100;-85
2022/11/23 09:42:31;;;;;;;4.40;1.63;;;11.30;99.90;;;;;;5031860;28;20026;-86
2022/11/23 09:45:31;;;;;;;6.00;1.63;;;11.30;99.90;;;;;;5019532;28;20032;-86
2022/11/23 09:48:34;;;;;;;5.63;1.80;;;11.30;99.90;;;;;;4999471;28;20076;-86
2022/11/23 09:51:10;;;;;;;4.72;1.80;;;11.30;99.90;;;;;;5032763;28;20505;-85
2022/11/23 09:53:45;;;;;;;4.70;1.70;;;11.30;99.90;;;;;;5019100;28;20036;-85
2022/11/23 09:56:29;;;;;;;6.28;1.70;;;11.30;99.90;;;;;;5008500;28;20156;-85
2022/11/23 09:58:58;;;;;;;5.40;1.83;;;11.40;99.90;;;;;;5047862;28;20440;-86
2022/11/23 10:01:26;;;;;;;3.72;1.60;;;11.40;99.90;;;;;;5027986;28;20223;-87
2022/11/23 10:03:52;;;;;;;3.40;1.40;;;11.60;99.90;;;;;;5022557;28;20453;-86
2022/11/23 10:06:21;;;;;;;4.70;1.30;;;11.70;99.90;;;;;;5029957;28;20470;-86
2022/11/23 10:09:05;;;;;;;2.67;1.20;;;11.80;99.90;;;;;;5003244;28;20489;-85
2022/11/23 10:11:47;;;;;;;3.88;1.30;;;12.00;99.90;;;;;;5018643;28;20468;-87
2022/11/23 10:14:31;;;;;;;3.65;1.10;;;12.10;99.90;;;;;;5012886;28;20561;-86
2022/11/23 10:17:06;;;;;;;3.50;1.23;;;12.20;99.90;;;;;;5048383;28;20580;-85
2022/11/23 10:20:03;;;;;;;3.23;1.20;;;12.30;99.90;;;;;;5019328;28;20314;-88
2022/11/23 10:22:59;;;;;;;4.13;1.27;;;12.30;99.90;;;;;;5017197;28;20810;-86
2022/11/23 10:25:30;;;;;;;2.80;1.15;;;12.40;99.90;;;;;;5026971;28;20033;-87
2022/11/23 10:28:00;;;;;;;3.58;1.10;;;12.40;99.90;;;;;;5048396;28;20048;-85
2022/11/23 10:30:25;;;;;;;2.22;1.00;;;12.40;99.90;;;;;;5028294;28;20055;-86
2022/11/23 10:33:18;;;;;;;2.63;0.90;;;12.40;99.90;;;;;;5032985;28;20017;-82
2022/11/23 10:35:44;;;;;;;2.97;1.33;;;12.50;99.90;;;;;;5049380;28;20056;-87
2022/11/23 10:38:12;;;;;;;3.30;1.10;;;12.70;99.90;;;;;;5022880;28;20065;-87
2022/11/23 10:40:43;;;;;;;2.17;0.98;;;12.90;99.90;;;;;;5013908;28;20078;-86
2022/11/23 10:43:24;;;;;;;3.13;1.10;;;13.10;99.90;;;;;;5019139;28;20029;-86
2022/11/23 10:45:49;;;;;;;1.98;0.90;;;13.30;99.90;;;;;;5030278;28;20052;-86
2022/11/23 10:48:33;;;;;;;1.90;0.90;;;13.40;99.90;;;;;;5026398;28;20023;-86
2022/11/23 10:51:22;;;;;;;3.00;1.00;;;13.60;99.90;;;;;;5029881;28;20033;-85
2022/11/23 10:54:01;;;;;;;2.35;0.90;;;13.70;99.90;;;;;;5029902;28;20366;-87
2022/11/23 10:56:27;;;;;;;2.65;0.90;;;13.80;99.90;;;;;;5034143;28;20633;-86
2022/11/23 10:58:53;;;;;;;2.27;0.90;;;14.00;99.90;;;;;;5034163;28;20013;-86
2022/11/23 11:01:29;;;;;;;4.18;1.10;;;14.10;99.90;;;;;;5035361;28;20366;-84
2022/11/23 11:04:01;;;;;;;4.22;1.23;;;14.30;99.90;;;;;;5034838;28;20032;-85
2022/11/23 11:06:30;;;;;;;3.58;1.10;;;14.50;99.90;;;;;;5012264;28;20075;-86
2022/11/23 11:09:19;;;;;;;3.53;1.10;;;14.70;99.90;;;;;;5040271;28;20056;-84
2022/11/23 11:11:47;;;;;;;3.40;0.90;;;14.80;99.90;;;;;;5028475;28;20040;-86
2022/11/23 11:14:19;;;;;;;2.17;0.90;;;14.90;99.90;;;;;;5055363;28;20535;-86
2022/11/23 11:16:56;;;;;;;2.55;0.95;;;14.90;99.90;;;;;;5031761;28;20108;-86
2022/11/23 11:19:33;;;;;;;1.98;0.85;;;14.90;99.90;;;;;;5016064;28;23305;-85
2022/11/23 11:22:20;;;;;;;3.72;1.00;;;14.90;99.90;;;;;;5033572;28;20028;-86
2022/11/23 11:24:47;;;;;;;2.17;0.90;;;14.80;99.90;;;;;;5041366;28;20456;-85
2022/11/23 11:27:21;;;;;;;2.33;0.80;;;14.70;99.90;;;;;;5010038;28;20029;-85
2022/11/23 11:29:48;;;;;;;2.08;0.70;;;14.70;99.90;;;;;;5056854;28;20021;-84
2022/11/23 11:32:22;;;;;;;3.08;0.90;;;14.70;99.90;;;;;;5036329;28;20057;-86
2022/11/23 11:35:14;;;;;;;3.10;0.90;;;14.60;99.90;;;;;;5020617;28;20457;-86
2022/11/23 11:37:45;;;;;;;2.80;0.90;;;14.60;99.90;;;;;;5040085;28;20150;-86
2022/11/23 11:40:26;;;;;;;3.67;0.80;;;14.50;99.90;;;;;;5022641;28;20154;-86
2022/11/23 11:43:06;;;;;;;3.95;0.90;;;14.50;99.90;;;;;;5019876;28;20028;-85
2022/11/23 11:45:37;;;;;;;2.63;1.10;;;14.40;99.90;;;;;;5042104;28;20128;-86
2022/11/23 11:48:13;;;;;;;2.13;0.80;;;14.30;99.90;;;;;;5024559;28;20220;-85
2022/11/23 11:50:55;;;;;;;2.30;0.80;;;14.30;99.90;;;;;;5007915;28;20021;-86
2022/11/23 11:53:55;;;;;;;2.60;0.90;;;14.30;99.90;;;;;;5015236;28;20373;-85
2022/11/23 11:56:21;;;;;;;2.17;0.88;;;14.20;99.90;;;;;;5029631;28;20060;-85
2022/11/23 11:59:13;;;;;;;3.97;1.00;;;14.20;99.90;;;;;;5036802;28;20083;-86
2022/11/23 12:01:49;;;;;;;1.67;0.70;;;14.20;99.90;;;;;;5020801;28;20284;-85
2022/11/23 12:04:30;;;;;;;2.05;0.80;;;14.20;99.90;;;;;;5016650;28;20044;-86
2022/11/23 12:07:05;;;;;;;2.83;0.80;;;14.20;99.90;;;;;;5028236;28;20043;-86
2022/11/23 12:09:39;;;;;;;2.13;0.80;;;14.20;99.90;;;;;;5035978;28;20047;-86
2022/11/23 12:12:13;;;;;;;2.08;0.75;;;14.10;99.90;;;;;;5008961;28;20245;-86
2022/11/23 12:14:39;;;;;;;2.83;0.80;;;14.10;99.90;;;;;;5032849;28;20032;-87
2022/11/23 12:17:10;;;;;;;1.70;0.70;;;14.10;99.90;;;;;;5013947;28;20239;-87
2022/11/23 12:19:45;;;;;;;2.20;0.70;;;14.00;99.90;;;;;;5030259;28;20051;-85
2022/11/23 12:22:19;;;;;;;2.50;0.93;;;14.00;99.90;;;;;;5008028;28;20040;-85
2022/11/23 12:25:04;;;;;;;2.25;0.80;;;14.00;99.90;;;;;;5012319;28;20044;-85
2022/11/23 12:27:38;;;;;;;2.92;0.70;;;13.90;99.90;;;;;;4998143;28;20071;-86
2022/11/23 12:30:33;;;;;;;3.63;0.80;;;13.80;99.90;;;;;;5009980;28;20486;-84
2022/11/23 12:33:01;;;;;;;2.38;0.80;;;13.80;99.90;;;;;;5020430;28;20031;-84
2022/11/23 12:35:54;;;;;;;2.70;0.70;;;13.70;99.90;;;;;;5043107;28;20033;-86
2022/11/23 12:38:28;;;;;;;2.03;0.60;;;13.70;99.90;;;;;;4995022;28;20025;-84
2022/11/23 12:41:15;;;;;;;3.67;0.93;;;13.60;99.90;;;;;;5004325;28;20602;-85
2022/11/23 12:43:59;;;;;;;1.17;0.60;;;13.50;99.90;;;;;;5030440;28;20899;-85
2022/11/23 12:46:36;;;;;;;0.98;0.60;;;13.40;99.90;;;;;;5018524;28;20071;-84
2022/11/23 12:49:01;;;;;;;1.33;0.53;;;13.30;99.90;;;;;;5016367;28;20022;-84
2022/11/23 12:51:47;;;;;;;1.20;0.60;;;13.20;99.90;;;;;;5049973;28;20031;-83
2022/11/23 12:54:39;;;;;;;2.33;0.57;;;13.00;99.90;;;;;;5002417;28;20046;-85
2022/11/23 12:57:10;;;;;;;1.23;0.60;;;13.00;99.90;;;;;;5026061;28;20047;-83
2022/11/23 13:00:20;;;;;;;2.15;0.70;;;12.80;99.90;;;;;;4999471;28;20461;-86